^^
Meteo Knjazevac Station Historical Data
Daily Summary for June 30, 2022 Units:  Both    English   Metric
Daily Weekly Monthly Yearly Custom
  High: Low: Average:
Temperature: 95 °F /  35 °C 56.5 °F /  13.6 °C 76.4 °F /  24.7 °C
Dew Point: 73.5 °F /  23.1 °C 55.4 °F /  13 °C 65.5 °F /  18.6 °C
Humidity: 99% 47% 73%
Wind Speed: 6mph /  9.7km/h - 1.4mph /  2.3km/h
Wind Gust: 12mph /  19.3km/h - -
Wind- - South
Pressure: 30.03 in /  1016.8 hPa 29.94 in /  1013.8 hPa -
Precipitation: 0.00 in /  0 mm    
Historical Graphs
 
 
Tabular Data for June 30, 2022
Time Temperature Dew Point Pressure Wind Wind Speed Wind Gust Humidity Rainfall Rate (Hourly) solar Conditions
00:00 64.4 °F /  18 °C 61.1 °F /  16.2 °C 30.01in /  1016.1hPa West 2mph /  3.2km/h 4mph /  6.4km/h 89% 0.00in /  0mm 0 W/m2
00:10 63.7 °F /  17.6 °C 60.7 °F /  15.9 °C 30.01in /  1016.1hPa West 1mph /  1.6km/h 5mph /  8km/h 90% 0.00in /  0mm 0 W/m2
00:20 63.2 °F /  17.3 °C 60.2 °F /  15.7 °C 30.01in /  1016.1hPa WSW 1mph /  1.6km/h 5mph /  8km/h 90% 0.00in /  0mm 0 W/m2
00:50 62.2 °F /  16.8 °C 59.6 °F /  15.3 °C 30.01in /  1016.1hPa Calm   2mph /  3.2km/h 91% 0.00in /  0mm 0 W/m2
01:00 61.7 °F /  16.5 °C 59.7 °F /  15.4 °C 30.02in /  1016.5hPa West 2mph /  3.2km/h 5mph /  8km/h 93% 0.00in /  0mm 0 W/m2
01:10 61.5 °F /  16.4 °C 59.5 °F /  15.3 °C 30.02in /  1016.5hPa WNW 1mph /  1.6km/h 5mph /  8km/h 93% 0.00in /  0mm 0 W/m2
01:20 61.3 °F /  16.3 °C 59.3 °F /  15.2 °C 30.01in /  1016.1hPa WSW 1mph /  1.6km/h 5mph /  8km/h 93% 0.00in /  0mm 0 W/m2
01:30 61.2 °F /  16.2 °C 59.1 °F /  15.1 °C 30.01in /  1016.1hPa WSW 1mph /  1.6km/h 2mph /  3.2km/h 93% 0.00in /  0mm 0 W/m2
01:50 60.6 °F /  15.9 °C 58.6 °F /  14.8 °C 30.01in /  1016.1hPa WNW 1mph /  1.6km/h 4mph /  6.4km/h 93% 0.00in /  0mm 0 W/m2
02:00 60.4 °F /  15.8 °C 58.7 °F /  14.8 °C 30.01in /  1016.1hPa WNW 1mph /  1.6km/h 3mph /  4.8km/h 94% 0.00in /  0mm 0 W/m2
02:10 60.3 °F /  15.7 °C 58.5 °F /  14.7 °C 30.01in /  1016.1hPa West 1mph /  1.6km/h 2mph /  3.2km/h 94% 0.00in /  0mm 0 W/m2
02:20 59.9 °F /  15.5 °C 58.2 °F /  14.6 °C 30.01in /  1016.1hPa WNW 1mph /  1.6km/h 2mph /  3.2km/h 94% 0.00in /  0mm 0 W/m2
02:30 59.7 °F /  15.4 °C 58 °F /  14.4 °C 30.02in /  1016.5hPa WNW 1mph /  1.6km/h 2mph /  3.2km/h 94% 0.00in /  0mm 0 W/m2
02:40 59.4 °F /  15.2 °C 57.6 °F /  14.2 °C 30.01in /  1016.1hPa West 1mph /  1.6km/h 3mph /  4.8km/h 94% 0.00in /  0mm 0 W/m2
03:00 59.2 °F /  15.1 °C 57.5 °F /  14.2 °C 30.01in /  1016.1hPa WNW 1mph /  1.6km/h 3mph /  4.8km/h 94% 0.00in /  0mm 0 W/m2
03:10 59 °F /  15 °C 57.3 °F /  14.1 °C 30.01in /  1016.1hPa Calm   3mph /  4.8km/h 94% 0.00in /  0mm 0 W/m2
03:20 58.6 °F /  14.8 °C 56.9 °F /  13.8 °C 30.01in /  1016.1hPa West 2mph /  3.2km/h 3mph /  4.8km/h 94% 0.00in /  0mm 0 W/m2
03:30 58.5 °F /  14.7 °C 56.7 °F /  13.7 °C 30.01in /  1016.1hPa West 1mph /  1.6km/h 3mph /  4.8km/h 94% 0.00in /  0mm 0 W/m2
03:40 58.3 °F /  14.6 °C 56.6 °F /  13.7 °C 30.01in /  1016.1hPa Calm   2mph /  3.2km/h 94% 0.00in /  0mm 0 W/m2
04:00 57.9 °F /  14.4 °C 56.5 °F /  13.6 °C 30.01in /  1016.1hPa WNW 1mph /  1.6km/h 3mph /  4.8km/h 95% 0.00in /  0mm 0 W/m2
04:10 57.6 °F /  14.2 °C 56.1 °F /  13.4 °C 30.01in /  1016.1hPa West 2mph /  3.2km/h 4mph /  6.4km/h 95% 0.00in /  0mm 0 W/m2
04:20 57.6 °F /  14.2 °C 56.1 °F /  13.4 °C 30.01in /  1016.1hPa NW 1mph /  1.6km/h 3mph /  4.8km/h 95% 0.00in /  0mm 0 W/m2
04:30 57.4 °F /  14.1 °C 56 °F /  13.3 °C 30.01in /  1016.1hPa WNW 1mph /  1.6km/h 2mph /  3.2km/h 95% 0.00in /  0mm 0 W/m2
04:40 57 °F /  13.9 °C 55.6 °F /  13.1 °C 30.01in /  1016.1hPa WSW 1mph /  1.6km/h 2mph /  3.2km/h 95% 0.00in /  0mm 0 W/m2
05:00 56.7 °F /  13.7 °C 55.5 °F /  13.1 °C 30.01in /  1016.1hPa WSW 1mph /  1.6km/h 4mph /  6.4km/h 96% 0.00in /  0mm 7 W/m2
05:10 56.7 °F /  13.7 °C 55.5 °F /  13.1 °C 30.01in /  1016.1hPa West 1mph /  1.6km/h 4mph /  6.4km/h 96% 0.00in /  0mm 12 W/m2
05:20 56.5 °F /  13.6 °C 55.4 °F /  13 °C 30.01in /  1016.1hPa Calm   3mph /  4.8km/h 96% 0.00in /  0mm 20 W/m2
05:30 56.5 °F /  13.6 °C 55.9 °F /  13.3 °C 30.01in /  1016.1hPa Calm   2mph /  3.2km/h 98% 0.00in /  0mm 27 W/m2
05:40 56.7 °F /  13.7 °C 56.1 °F /  13.4 °C 30.01in /  1016.1hPa Calm   2mph /  3.2km/h 98% 0.00in /  0mm 33 W/m2
05:50 56.7 °F /  13.7 °C 55.5 °F /  13.1 °C 30.02in /  1016.5hPa North 1mph /  1.6km/h 2mph /  3.2km/h 96% 0.00in /  0mm 58 W/m2
06:00 56.8 °F /  13.8 °C 55.7 °F /  13.2 °C 30.02in /  1016.5hPa Calm   2mph /  3.2km/h 96% 0.00in /  0mm 86 W/m2
06:10 56.8 °F /  13.8 °C 56.3 °F /  13.5 °C 30.02in /  1016.5hPa NNE 2mph /  3.2km/h 3mph /  4.8km/h 98% 0.00in /  0mm 108 W/m2
06:20 57.4 °F /  14.1 °C 57.1 °F /  13.9 °C 30.02in /  1016.5hPa Calm   3mph /  4.8km/h 99% 0.00in /  0mm 131 W/m2
06:50 58.3 °F /  14.6 °C 57.7 °F /  14.3 °C 30.02in /  1016.5hPa Calm   1mph /  1.6km/h 98% 0.00in /  0mm 212 W/m2
07:00 58.8 °F /  14.9 °C 58.3 °F /  14.6 °C 30.03in /  1016.8hPa NE 1mph /  1.6km/h 3mph /  4.8km/h 98% 0.00in /  0mm 241 W/m2
07:10 59.7 °F /  15.4 °C 59.1 °F /  15.1 °C 30.03in /  1016.8hPa NE 1mph /  1.6km/h 3mph /  4.8km/h 98% 0.00in /  0mm 272 W/m2
07:20 60.6 °F /  15.9 °C 59.2 °F /  15.1 °C 30.03in /  1016.8hPa NE 1mph /  1.6km/h 4mph /  6.4km/h 95% 0.00in /  0mm 304 W/m2
07:30 61.5 °F /  16.4 °C 60.1 °F /  15.6 °C 30.03in /  1016.8hPa NNE 1mph /  1.6km/h 4mph /  6.4km/h 95% 0.00in /  0mm 334 W/m2
07:40 62 °F /  16.7 °C 60.3 °F /  15.7 °C 30.03in /  1016.8hPa North 1mph /  1.6km/h 3mph /  4.8km/h 94% 0.00in /  0mm 367 W/m2
07:50 62.8 °F /  17.1 °C 60.1 °F /  15.6 °C 30.03in /  1016.8hPa Calm   2mph /  3.2km/h 91% 0.00in /  0mm 404 W/m2
08:10 64.4 °F /  18 °C 61.4 °F /  16.3 °C 30.03in /  1016.8hPa WSW 1mph /  1.6km/h 3mph /  4.8km/h 90% 0.00in /  0mm 479 W/m2
08:20 66 °F /  18.9 °C 62.7 °F /  17.1 °C 30.03in /  1016.8hPa WNW 1mph /  1.6km/h 4mph /  6.4km/h 89% 0.00in /  0mm 511 W/m2
08:40 70.1 °F /  21.2 °C 64.7 °F /  18.2 °C 30.03in /  1016.8hPa WSW 1mph /  1.6km/h 3mph /  4.8km/h 83% 0.00in /  0mm 574 W/m2
08:50 71.9 °F /  22.2 °C 64.7 °F /  18.2 °C 30.03in /  1016.8hPa ENE 2mph /  3.2km/h 6mph /  9.7km/h 78% 0.00in /  0mm 606 W/m2
09:00 73.2 °F /  22.9 °C 64.8 °F /  18.2 °C 30.03in /  1016.8hPa Calm   6mph /  9.7km/h 75% 0.00in /  0mm 636 W/m2
09:20 76.1 °F /  24.5 °C 66.8 °F /  19.3 °C 30.03in /  1016.8hPa NNE 1mph /  1.6km/h 6mph /  9.7km/h 73% 0.00in /  0mm 696 W/m2
09:30 77.2 °F /  25.1 °C 66.6 °F /  19.2 °C 30.02in /  1016.5hPa North 3mph /  4.8km/h 7mph /  11.3km/h 70% 0.00in /  0mm 724 W/m2
09:40 78.4 °F /  25.8 °C 67 °F /  19.4 °C 30.02in /  1016.5hPa NNE 2mph /  3.2km/h 7mph /  11.3km/h 68% 0.00in /  0mm 752 W/m2
09:50 79.5 °F /  26.4 °C 66.7 °F /  19.3 °C 30.02in /  1016.5hPa NNE 2mph /  3.2km/h 7mph /  11.3km/h 65% 0.00in /  0mm 774 W/m2
10:00 80.4 °F /  26.9 °C 67.1 °F /  19.5 °C 30.02in /  1016.5hPa North 2mph /  3.2km/h 6mph /  9.7km/h 64% 0.00in /  0mm 801 W/m2
10:10 81.5 °F /  27.5 °C 67.7 °F /  19.8 °C 30.02in /  1016.5hPa North 2mph /  3.2km/h 6mph /  9.7km/h 63% 0.00in /  0mm 823 W/m2
10:20 82.2 °F /  27.9 °C 67.9 °F /  19.9 °C 30.01in /  1016.1hPa NE 1mph /  1.6km/h 8mph /  12.9km/h 62% 0.00in /  0mm 846 W/m2
10:30 83.1 °F /  28.4 °C 68.7 °F /  20.4 °C 30.01in /  1016.1hPa North 2mph /  3.2km/h 6mph /  9.7km/h 62% 0.00in /  0mm 864 W/m2
10:40 83.8 °F /  28.8 °C 69.4 °F /  20.8 °C 30.01in /  1016.1hPa NNE 3mph /  4.8km/h 9mph /  14.5km/h 62% 0.00in /  0mm 849 W/m2
10:50 84.7 °F /  29.3 °C 70.3 °F /  21.3 °C 30.01in /  1016.1hPa NNE 5mph /  8km/h 8mph /  12.9km/h 62% 0.00in /  0mm 842 W/m2
11:00 85.4 °F /  29.7 °C 69.5 °F /  20.8 °C 30.01in /  1016.1hPa NNE 2mph /  3.2km/h 7mph /  11.3km/h 59% 0.00in /  0mm 914 W/m2
11:10 86.2 °F /  30.1 °C 70.2 °F /  21.2 °C 30.01in /  1016.1hPa NNE 3mph /  4.8km/h 7mph /  11.3km/h 59% 0.00in /  0mm 926 W/m2
11:30 87.4 °F /  30.8 °C 70.3 °F /  21.3 °C 30.00in /  1015.8hPa NNE 3mph /  4.8km/h 9mph /  14.5km/h 57% 0.00in /  0mm 948 W/m2
11:50 88.7 °F /  31.5 °C 70.5 °F /  21.4 °C 30.00in /  1015.8hPa North 3mph /  4.8km/h 7mph /  11.3km/h 55% 0.00in /  0mm 963 W/m2
12:00 89.2 °F /  31.8 °C 69.9 °F /  21.1 °C 30.00in /  1015.8hPa North 3mph /  4.8km/h 7mph /  11.3km/h 53% 0.00in /  0mm 901 W/m2
12:10 89.6 °F /  32 °C 70.2 °F /  21.2 °C 29.99in /  1015.5hPa North 3mph /  4.8km/h 7mph /  11.3km/h 53% 0.00in /  0mm 647 W/m2
12:30 90.7 °F /  32.6 °C 70.6 °F /  21.4 °C 29.99in /  1015.5hPa NNE 1mph /  1.6km/h 7mph /  11.3km/h 52% 0.00in /  0mm 831 W/m2
12:40 91.2 °F /  32.9 °C 71.1 °F /  21.7 °C 29.99in /  1015.5hPa North 1mph /  1.6km/h 7mph /  11.3km/h 52% 0.00in /  0mm 760 W/m2
12:50 91.6 °F /  33.1 °C 72 °F /  22.2 °C 29.99in /  1015.5hPa North 3mph /  4.8km/h 6mph /  9.7km/h 53% 0.00in /  0mm 311 W/m2
13:00 91.8 °F /  33.2 °C 71.6 °F /  22 °C 29.98in /  1015.1hPa WNW 2mph /  3.2km/h 6mph /  9.7km/h 52% 0.00in /  0mm 952 W/m2
13:10 91.9 °F /  33.3 °C 71.8 °F /  22.1 °C 29.98in /  1015.1hPa WNW 1mph /  1.6km/h 6mph /  9.7km/h 52% 0.00in /  0mm 965 W/m2
13:20 92.3 °F /  33.5 °C 72.1 °F /  22.3 °C 29.98in /  1015.1hPa NNE 1mph /  1.6km/h 7mph /  11.3km/h 52% 0.00in /  0mm 959 W/m2
13:30 92.5 °F /  33.6 °C 72.3 °F /  22.4 °C 29.97in /  1014.8hPa North 2mph /  3.2km/h 5mph /  8km/h 52% 0.00in /  0mm 951 W/m2
13:40 92.7 °F /  33.7 °C 72.5 °F /  22.5 °C 29.97in /  1014.8hPa WSW 3mph /  4.8km/h 6mph /  9.7km/h 52% 0.00in /  0mm 942 W/m2
14:00 93 °F /  33.9 °C 72.8 °F /  22.7 °C 29.97in /  1014.8hPa West 3mph /  4.8km/h 8mph /  12.9km/h 52% 0.00in /  0mm 919 W/m2
14:20 93 °F /  33.9 °C 72.8 °F /  22.7 °C 29.96in /  1014.4hPa WNW 3mph /  4.8km/h 8mph /  12.9km/h 52% 0.00in /  0mm 890 W/m2
14:30 93 °F /  33.9 °C 73.4 °F /  23 °C 29.96in /  1014.4hPa West 2mph /  3.2km/h 8mph /  12.9km/h 53% 0.00in /  0mm 874 W/m2
14:40 93.2 °F /  34 °C 73 °F /  22.8 °C 29.95in /  1014.1hPa West 6mph /  9.7km/h 11mph /  17.7km/h 52% 0.00in /  0mm 857 W/m2
15:00 93.2 °F /  34 °C 73.5 °F /  23.1 °C 29.95in /  1014.1hPa WSW 3mph /  4.8km/h 8mph /  12.9km/h 53% 0.00in /  0mm 818 W/m2
15:10 93.6 °F /  34.2 °C 73.3 °F /  22.9 °C 29.95in /  1014.1hPa West 3mph /  4.8km/h 10mph /  16.1km/h 52% 0.00in /  0mm 797 W/m2
15:30 94.5 °F /  34.7 °C 72.9 °F /  22.7 °C 29.94in /  1013.8hPa SE 1mph /  1.6km/h 8mph /  12.9km/h 50% 0.00in /  0mm 751 W/m2
15:40 94.5 °F /  34.7 °C 71.7 °F /  22.1 °C 29.95in /  1014.1hPa NNE 2mph /  3.2km/h 12mph /  19.3km/h 48% 0.00in /  0mm 722 W/m2
15:50 94.8 °F /  34.9 °C 72.7 °F /  22.6 °C 29.94in /  1013.8hPa North 1mph /  1.6km/h 8mph /  12.9km/h 49% 0.00in /  0mm 695 W/m2
16:00 95 °F /  35 °C 72.8 °F /  22.7 °C 29.94in /  1013.8hPa NE 2mph /  3.2km/h 9mph /  14.5km/h 49% 0.00in /  0mm 665 W/m2
16:10 95 °F /  35 °C 72.2 °F /  22.3 °C 29.94in /  1013.8hPa NE 3mph /  4.8km/h 8mph /  12.9km/h 48% 0.00in /  0mm 285 W/m2
16:20 94.6 °F /  34.8 °C 71.9 °F /  22.2 °C 29.94in /  1013.8hPa NNE 3mph /  4.8km/h 10mph /  16.1km/h 48% 0.00in /  0mm 597 W/m2
16:30 94.3 °F /  34.6 °C 71 °F /  21.7 °C 29.94in /  1013.8hPa ENE 2mph /  3.2km/h 8mph /  12.9km/h 47% 0.00in /  0mm 405 W/m2
16:50 94.3 °F /  34.6 °C 71.6 °F /  22 °C 29.94in /  1013.8hPa NE 3mph /  4.8km/h 10mph /  16.1km/h 48% 0.00in /  0mm 508 W/m2
17:00 94.5 °F /  34.7 °C 71.1 °F /  21.7 °C 29.94in /  1013.8hPa NE 2mph /  3.2km/h 8mph /  12.9km/h 47% 0.00in /  0mm 474 W/m2
17:40 94.3 °F /  34.6 °C 71 °F /  21.7 °C 29.94in /  1013.8hPa NE 2mph /  3.2km/h 7mph /  11.3km/h 47% 0.00in /  0mm 335 W/m2
17:50 94.3 °F /  34.6 °C 71 °F /  21.7 °C 29.94in /  1013.8hPa North 2mph /  3.2km/h 7mph /  11.3km/h 47% 0.00in /  0mm 309 W/m2
18:10 94.1 °F /  34.5 °C 70.8 °F /  21.6 °C 29.94in /  1013.8hPa NE 1mph /  1.6km/h 5mph /  8km/h 47% 0.00in /  0mm 248 W/m2
18:20 93.7 °F /  34.3 °C 70.5 °F /  21.4 °C 29.94in /  1013.8hPa NE 1mph /  1.6km/h 6mph /  9.7km/h 47% 0.00in /  0mm 218 W/m2
18:30 93.4 °F /  34.1 °C 70.1 °F /  21.2 °C 29.94in /  1013.8hPa ENE 1mph /  1.6km/h 6mph /  9.7km/h 47% 0.00in /  0mm 188 W/m2
18:40 93.2 °F /  34 °C 70 °F /  21.1 °C 29.94in /  1013.8hPa NNE 1mph /  1.6km/h 6mph /  9.7km/h 47% 0.00in /  0mm 161 W/m2
18:50 92.8 °F /  33.8 °C 70.3 °F /  21.3 °C 29.94in /  1013.8hPa Calm   6mph /  9.7km/h 48% 0.00in /  0mm 133 W/m2
19:00 92.3 °F /  33.5 °C 69.8 °F /  21 °C 29.94in /  1013.8hPa NNW 1mph /  1.6km/h 4mph /  6.4km/h 48% 0.00in /  0mm 106 W/m2
19:10 91.6 °F /  33.1 °C 70.3 °F /  21.3 °C 29.94in /  1013.8hPa Calm   3mph /  4.8km/h 50% 0.00in /  0mm 72 W/m2
19:20 90.7 °F /  32.6 °C 70.6 °F /  21.4 °C 29.94in /  1013.8hPa Calm   3mph /  4.8km/h 52% 0.00in /  0mm 62 W/m2
19:30 89.6 °F /  32 °C 69.6 °F /  20.9 °C 29.95in /  1014.1hPa NNW 1mph /  1.6km/h 3mph /  4.8km/h 52% 0.00in /  0mm 40 W/m2
19:40 88.3 °F /  31.3 °C 69 °F /  20.6 °C 29.95in /  1014.1hPa NNW 1mph /  1.6km/h 4mph /  6.4km/h 53% 0.00in /  0mm 29 W/m2
19:50 87.2 °F /  30.7 °C 69.1 °F /  20.6 °C 29.95in /  1014.1hPa NW 2mph /  3.2km/h 5mph /  8km/h 55% 0.00in /  0mm 17 W/m2
20:00 86.2 °F /  30.1 °C 70.7 °F /  21.5 °C 29.96in /  1014.4hPa SW 1mph /  1.6km/h 5mph /  8km/h 60% 0.00in /  0mm 10 W/m2
20:10 85.1 °F /  29.5 °C 70.6 °F /  21.4 °C 29.96in /  1014.4hPa SSW 1mph /  1.6km/h 3mph /  4.8km/h 62% 0.00in /  0mm 5 W/m2
20:20 84 °F /  28.9 °C 70.1 °F /  21.2 °C 29.96in /  1014.4hPa SW 1mph /  1.6km/h 3mph /  4.8km/h 63% 0.00in /  0mm 0 W/m2
20:30 82.9 °F /  28.3 °C 69.5 °F /  20.8 °C 29.96in /  1014.4hPa SW 1mph /  1.6km/h 5mph /  8km/h 64% 0.00in /  0mm 0 W/m2
20:40 81.9 °F /  27.7 °C 69.8 °F /  21 °C 29.97in /  1014.8hPa SW 2mph /  3.2km/h 3mph /  4.8km/h 67% 0.00in /  0mm 0 W/m2
20:50 81.1 °F /  27.3 °C 69.6 °F /  20.9 °C 29.97in /  1014.8hPa SW 2mph /  3.2km/h 3mph /  4.8km/h 68% 0.00in /  0mm 0 W/m2
21:00 80 °F /  26.7 °C 69 °F /  20.6 °C 29.97in /  1014.8hPa SSW 2mph /  3.2km/h 4mph /  6.4km/h 69% 0.00in /  0mm 0 W/m2
21:10 79 °F /  26.1 °C 69.6 °F /  20.9 °C 29.98in /  1015.1hPa WSW 2mph /  3.2km/h 4mph /  6.4km/h 73% 0.00in /  0mm 0 W/m2
21:20 78.1 °F /  25.6 °C 68.3 °F /  20.2 °C 29.98in /  1015.1hPa WSW 2mph /  3.2km/h 4mph /  6.4km/h 72% 0.00in /  0mm 0 W/m2
21:30 77.2 °F /  25.1 °C 68.2 °F /  20.1 °C 29.99in /  1015.5hPa SW 2mph /  3.2km/h 3mph /  4.8km/h 74% 0.00in /  0mm 0 W/m2
21:40 76.5 °F /  24.7 °C 67.9 °F /  19.9 °C 29.99in /  1015.5hPa WSW 2mph /  3.2km/h 3mph /  4.8km/h 75% 0.00in /  0mm 0 W/m2
21:50 75.7 °F /  24.3 °C 68 °F /  20 °C 29.99in /  1015.5hPa SW 1mph /  1.6km/h 3mph /  4.8km/h 77% 0.00in /  0mm 0 W/m2
22:00 75.2 °F /  24 °C 67.5 °F /  19.7 °C 29.99in /  1015.5hPa Calm   2mph /  3.2km/h 77% 0.00in /  0mm 0 W/m2
22:10 74.7 °F /  23.7 °C 67 °F /  19.4 °C 29.99in /  1015.5hPa West 1mph /  1.6km/h 2mph /  3.2km/h 77% 0.00in /  0mm 0 W/m2
22:20 74.3 °F /  23.5 °C 67.3 °F /  19.6 °C 29.99in /  1015.5hPa SSW 1mph /  1.6km/h 2mph /  3.2km/h 79% 0.00in /  0mm 0 W/m2
22:40 73.2 °F /  22.9 °C 66.7 °F /  19.3 °C 29.99in /  1015.5hPa Calm   1mph /  1.6km/h 80% 0.00in /  0mm 0 W/m2
22:50 72.3 °F /  22.4 °C 66.2 °F /  19 °C 29.99in /  1015.5hPa Calm     81% 0.00in /  0mm 0 W/m2
23:00 72 °F /  22.2 °C 65.8 °F /  18.8 °C 30.00in /  1015.8hPa Calm   3mph /  4.8km/h 81% 0.00in /  0mm 0 W/m2
23:20 71.2 °F /  21.8 °C 65.7 °F /  18.7 °C 30.00in /  1015.8hPa SW 1mph /  1.6km/h 2mph /  3.2km/h 83% 0.00in /  0mm 0 W/m2
23:30 70.7 °F /  21.5 °C 65.6 °F /  18.7 °C 30.00in /  1015.8hPa Calm   2mph /  3.2km/h 84% 0.00in /  0mm 0 W/m2
23:40 70.5 °F /  21.4 °C 65.1 °F /  18.4 °C 29.99in /  1015.5hPa SW 1mph /  1.6km/h 2mph /  3.2km/h 83% 0.00in /  0mm 0 W/m2
23:50 69.8 °F /  21 °C 65.1 °F /  18.4 °C 30.00in /  1015.8hPa Calm   2mph /  3.2km/h 85% 0.00in /  0mm 0 W/m2
Knjazevac, Serbia
Compliments of Weather Underground - 2 mb